Details From MROC - San Jose Juan Santamaria Intl
To MNMG - Managua Intl
Flight Number -
Tags generated
Created
Modified
Stats Distance 173 nm / 321 km
Max Altitude 18,000 ft / 5,486 m
Waypoints 3
Social Downloads 8
Likes 0
Share VATSIM

Download

Looking for another format? Having issues loading an existing format? Contact us
Advertisement - Login to hide

Notes

Basic altitude profile: - Ascent Rate: 2500ft/min - Ascent Speed: 250kts - Cruise Altitude: 35000ft - Cruise Speed: 420kts - Descent Rate: 1500ft/min - Descent Speed: 250kts

Route

MROC ULAPO MNMG

ID Type Via Altitude (ft/m) Position (lat/lon) Dist (leg/tot) Name
O MROC APT - 0 / 0 9.99393 / -84.20888 - / 0 nm San Jose Juan Santamaria Intl
ULAPO FIX - 18,000 / 5,486 11.02833 / -85.17167 84 / 84 nm
O MNMG APT - 0 / 0 12.14149 / -86.16818 88 / 173 nm Managua Intl

Altitude Profile

Advertisement - Login to hide

Weather


0- 5 10 15 20 25 30 35+ Temperature / °C

Clouds and Precipitation
Forecast for 2020-01-26 12:00 UTC. Updated 4 hours ago

Ground ~20,000 ft ~40,000 ft Winds

MROC

Details ICAO MROC (SJO)
Name Juan Santamaria Intl
Region Costa Rica
Timezone America/Costa_Rica (UTC-6.0)
Stats Elevation 3,020 ft / 920 m (AMSL)
Location 9.993870° -84.208900°
Runways 1
Magnetic Variation 2.026° W

METAR

MROC 261300Z 05008KT CAVOK 20/13 A3009 NOSIG

Decode

TAF

MROC 261100Z 2612/2712 11010KT 9999 FEW030 TX30/2619Z TN19/2710Z TEMPO 2619/2701 25009KT

Decode

Departure Runways

ID Width Length Bearing (true/mag) Surface Threshold Overrun Markings Lighting
07 148 ft / 45 m 9,888 ft / 3,014 m 69.16° / 71.19° ASPHALT 0 ft / 0 m 190 ft / 58 m PREC-APP EDGE THRESHOLD MALS REIL-OMNI
25 148 ft / 45 m 9,888 ft / 3,014 m 249.17° / 251.19° ASPHALT 1,614 ft / 492 m 0 ft / 0 m PREC-APP EDGE THRESHOLD REIL-OMNI

MNMG

Details ICAO MNMG (MGA)
Name Managua-Augusto Cesar Sandino Intl
Region Nicaragua
Timezone America/Managua (UTC-6.0)
Stats Elevation 194 ft / 59 m (AMSL)
Location 12.141600° -86.168400°
Runways 1
Magnetic Variation 1.248° W

METAR

MNMG 261300Z 15006KT CAVOK 21/16 Q1015 A2999 NOSIG

Decode

TAF

TAF MNMG 260945Z 2612/2712 VRB06KT 9999 FEW023 BECMG 2615/2620 10010KT 9999 FEW023 SCT300 TEMPO 2620/2703 13008KT

Decode

Destination Runways

ID Width Length Bearing (true/mag) Surface Threshold Overrun Markings Lighting
10 151 ft / 46 m 8,019 ft / 2,444 m 96.50° / 97.75° ASPHALT 0 ft / 0 m 89 ft / 27 m PREC-APP EDGE THRESHOLD ALSF-I REIL-OMNI
28 151 ft / 46 m 8,019 ft / 2,444 m 276.50° / 277.75° ASPHALT 0 ft / 0 m 98 ft / 30 m PREC-APP EDGE THRESHOLD REIL-OMNI

Approach Navaids

Runway Type Ident Frequency Range Bearing (true/mag) Slope Elevation
10 DME IMGA 109.10 MHz 18 nm / 33 km - - 194 ft / 59 m (AMSL)
10 LOC-ILS IMGA 109.10 MHz 18 nm / 33 km 96.54° / 97.79 ° - 192 ft / 59 m (AMSL)
10 GS IMGA 109.10 MHz 10 nm / 19 km 96.54° / 97.79 ° 3.10° 192 ft / 59 m (AMSL)

Popular Alternatives